Post Falls, ID

5:01 AM PST on February 09, 2016 (GMT -0800)
Tullamore | | Change Station
CLOSE
Current Station
Personal Weather Station
Location: Post Falls, ID
Elevation: 2221 ft
Nearby Weather Stations

Elev 2221 ft 47.74 °N, 116.90 °W | Updated 3 seconds ago

Clear
Clear
30.7 °F
Feels Like 30.7 °F
N
2.9
Wind Variable Wind from SE
Gusts 6.0 mph

Today
High -- | Low -- °F
--% Chance of Precip.
Yesterday
High -- | Low -- °F
Precip. -- in
Pressure 30.47 in
Visibility 10.0 miles
Clouds Clear
Dew Point 28.8 °F
Humidity 92%
Rainfall 0.00 in
Snow Depth Not available.
7:03 AM 5:00 PM
New Moon, 1% visible
METAR KCOE 091255Z AUTO 04009KT 10SM CLR 00/M02 A3047 RMK AO1
Pressure 30.47 in
Visibility 10.0 miles
Clouds Clear
Dew Point 28.8 °F
Humidity 92%
Rainfall 0.00 in
Snow Depth Not available.
7:03 AM 5:00 PM
New Moon, 1% visible
METAR KCOE 091255Z AUTO 04009KT 10SM CLR 00/M02 A3047 RMK AO1

10-Day Weather Forecast

Almanac

Astronomy

Feb. 09, 2016 Rise Set
Actual Time
Civil Twilight
Nautical Twilight
Astronomical Twilight
Moon
Length of Visible Light
Length of Day
Tomorrow will be .
, % of the Moon is Illuminated

Today's Extremes

State Highs State Lows

Community

WunderPhotos

Upload Photos

1,891,589 photos uploaded!

WunderBlog® & News

Nearby

Air Quality

  Air Quality AQ Index Pollutant
Not available.

Snow Depth

Station Depth Elevation

Earthquake Activity

City Distance Mag. Time & Date
Minimum magnitude displayed is 2.5.

Coastal Water Temperatures

Place Temperature

Stations

Nearby Weather Stations

Station Location Temp. Windchill Dew Point Humidity Wind Precip. Elev Updated Type
                   

Watches & Warnings

There are currently no watches in effect.